createdAt,value
2022-12-20T00:00:52.827Z,5.67
2022-12-20T00:03:20.720Z,5.90
2022-12-20T00:05:47.885Z,6.47
2022-12-20T00:08:15.030Z,5.17
2022-12-20T00:10:43.532Z,6.30
2022-12-20T00:13:11.270Z,5.70
2022-12-20T00:15:37.956Z,6.30
2022-12-20T00:18:05.101Z,5.97
2022-12-20T00:20:32.037Z,6.13
2022-12-20T00:22:58.708Z,5.80
2022-12-20T00:25:25.592Z,5.20
2022-12-20T00:27:52.353Z,6.00
2022-12-20T00:30:19.432Z,6.30
2022-12-20T00:32:49.164Z,6.27
2022-12-20T00:35:15.892Z,7.37
2022-12-20T00:37:42.580Z,5.87
2022-12-20T00:40:09.636Z,7.80
2022-12-20T00:42:36.257Z,6.47
2022-12-20T00:45:03.696Z,6.07
2022-12-20T00:47:30.333Z,5.80
2022-12-20T00:49:57.077Z,6.03
2022-12-20T00:52:23.810Z,5.40
2022-12-20T00:54:50.386Z,7.20
2022-12-20T00:57:17.121Z,5.97
2022-12-20T00:59:43.721Z,5.37
2022-12-20T01:02:10.601Z,6.63
2022-12-20T01:04:37.533Z,5.20
2022-12-20T01:07:04.465Z,4.80
2022-12-20T01:09:31.877Z,5.30
2022-12-20T01:11:58.609Z,5.50
2022-12-20T01:14:25.340Z,4.63
2022-12-20T01:16:52.067Z,6.00
2022-12-20T01:19:19.473Z,5.03
2022-12-20T01:21:46.320Z,6.00
2022-12-20T01:24:18.363Z,5.90
2022-12-20T01:26:45.497Z,5.80
2022-12-20T01:29:12.222Z,6.37
2022-12-20T01:31:38.895Z,5.63
2022-12-20T01:34:05.770Z,5.60
2022-12-20T01:36:34.077Z,5.83
2022-12-20T01:39:06.470Z,5.63
2022-12-20T01:41:33.712Z,4.63
2022-12-20T01:44:25.425Z,4.50
2022-12-20T01:46:52.885Z,4.83
2022-12-20T01:49:30.551Z,5.00
2022-12-20T01:52:02.812Z,5.13
2022-12-20T01:54:49.624Z,5.30
2022-12-20T01:57:57.540Z,5.30
2022-12-20T02:00:24.585Z,4.77
2022-12-20T02:02:51.875Z,4.27
2022-12-20T02:05:20.247Z,4.37
2022-12-20T02:07:49.107Z,5.60
2022-12-20T02:10:17.326Z,5.90
2022-12-20T02:12:46.523Z,5.50
2022-12-20T02:15:42.517Z,6.13
2022-12-20T02:18:33.969Z,4.80
2022-12-20T02:21:18.828Z,4.90
2022-12-20T02:24:07.525Z,4.87
2022-12-20T02:26:52.356Z,5.70
2022-12-20T02:29:28.420Z,5.93
2022-12-20T02:32:04.700Z,7.03
2022-12-20T02:34:33.969Z,4.67
2022-12-20T02:37:00.610Z,4.73
2022-12-20T02:39:29.270Z,7.10
2022-12-20T02:42:01.876Z,5.73
2022-12-20T02:44:48.935Z,5.60
2022-12-20T02:47:21.088Z,5.30
2022-12-20T02:49:49.456Z,5.47
2022-12-20T02:52:17.138Z,5.23
2022-12-20T02:54:43.919Z,4.60
2022-12-20T02:57:18.172Z,5.80
2022-12-20T02:59:57.474Z,5.80
2022-12-20T03:02:25.311Z,5.43
2022-12-20T03:04:52.769Z,5.83
2022-12-20T03:07:20.339Z,6.10
2022-12-20T03:09:47.071Z,5.73
2022-12-20T03:12:16.061Z,7.23
2022-12-20T03:14:42.795Z,7.10
2022-12-20T03:17:09.676Z,6.73
2022-12-20T03:19:36.338Z,6.13
2022-12-20T03:22:03.152Z,6.77
2022-12-20T03:24:29.823Z,5.70
2022-12-20T03:26:56.450Z,6.80
2022-12-20T03:29:23.127Z,6.80
2022-12-20T03:31:49.722Z,6.83
2022-12-20T03:34:16.319Z,6.90
2022-12-20T03:36:42.988Z,6.37
2022-12-20T03:39:09.665Z,5.77
2022-12-20T03:41:36.408Z,6.10
2022-12-20T03:44:03.700Z,6.20
2022-12-20T03:46:30.515Z,6.43
2022-12-20T03:48:57.156Z,6.07
2022-12-20T03:51:23.809Z,5.73
2022-12-20T03:53:50.672Z,6.40
2022-12-20T03:56:17.358Z,5.67
2022-12-20T03:58:44.304Z,5.87
2022-12-20T04:01:25.187Z,5.80
2022-12-20T04:03:52.239Z,5.80
2022-12-20T04:06:20.067Z,6.00
2022-12-20T04:08:46.773Z,5.17
2022-12-20T04:11:16.672Z,6.27
2022-12-20T04:13:44.878Z,6.37
2022-12-20T04:16:12.598Z,5.53
2022-12-20T04:18:39.345Z,6.13
2022-12-20T04:21:07.376Z,6.80
2022-12-20T04:23:38.554Z,6.30
2022-12-20T04:26:06.822Z,6.80
2022-12-20T04:28:34.178Z,6.23
2022-12-20T04:31:01.039Z,5.07
2022-12-20T04:33:28.712Z,5.40
2022-12-20T04:35:55.766Z,6.10
2022-12-20T04:38:23.079Z,6.27
2022-12-20T04:40:50.748Z,7.93
2022-12-20T04:43:18.443Z,8.47
2022-12-20T04:45:47.621Z,6.77
2022-12-20T04:48:54.468Z,8.57
2022-12-20T04:51:01.558Z,8.60
2022-12-20T04:53:47.080Z,7.90
2022-12-20T04:56:26.231Z,7.73
2022-12-20T04:58:54.174Z,7.53
2022-12-20T05:01:21.583Z,8.30
2022-12-20T05:03:49.541Z,7.23
2022-12-20T05:06:17.036Z,7.33
2022-12-20T05:08:44.203Z,7.47
2022-12-20T05:11:11.458Z,12.20
2022-12-20T05:13:38.199Z,10.00
2022-12-20T05:16:05.192Z,8.90
2022-12-20T05:18:32.183Z,7.17
2022-12-20T05:21:17.718Z,7.90
2022-12-20T05:24:02.927Z,8.07
2022-12-20T05:26:32.137Z,7.47
2022-12-20T05:28:58.781Z,8.93
2022-12-20T05:31:25.606Z,9.93
2022-12-20T05:33:52.425Z,9.30
2022-12-20T05:36:19.047Z,12.43
2022-12-20T05:38:45.739Z,12.77
2022-12-20T05:41:12.379Z,9.07
2022-12-20T05:43:38.991Z,8.73
2022-12-20T05:46:05.847Z,8.57
2022-12-20T05:48:32.485Z,7.00
2022-12-20T05:50:59.305Z,8.93
2022-12-20T05:53:26.721Z,9.00
2022-12-20T05:55:54.409Z,8.97
2022-12-20T05:58:21.224Z,7.60
2022-12-20T06:00:47.919Z,11.77
2022-12-20T06:03:19.125Z,11.00
2022-12-20T06:05:46.139Z,11.70
2022-12-20T06:08:13.924Z,8.83
2022-12-20T06:10:42.081Z,10.33
2022-12-20T06:13:09.494Z,9.37
2022-12-20T06:15:36.913Z,10.10
2022-12-20T06:18:03.938Z,9.67
2022-12-20T06:20:31.369Z,9.70
2022-12-20T06:22:58.285Z,8.50
2022-12-20T06:25:25.756Z,9.47
2022-12-20T06:27:52.583Z,7.80
2022-12-20T06:30:19.474Z,9.63
2022-12-20T06:32:46.263Z,8.37
2022-12-20T06:35:13.287Z,7.90
2022-12-20T06:37:40.772Z,9.53
2022-12-20T06:40:12.584Z,9.47
2022-12-20T06:42:39.476Z,8.13
2022-12-20T06:45:07.061Z,8.30
2022-12-20T06:47:33.759Z,9.47
2022-12-20T06:50:00.477Z,9.20
2022-12-20T06:52:27.238Z,8.17
2022-12-20T06:54:54.027Z,8.47
2022-12-20T06:57:20.721Z,7.30
2022-12-20T06:59:47.547Z,8.87
2022-12-20T07:02:14.581Z,7.17
2022-12-20T07:04:41.664Z,7.90
2022-12-20T07:07:08.598Z,7.97
2022-12-20T07:09:35.474Z,10.27
2022-12-20T07:12:02.282Z,9.23
2022-12-20T07:14:29.048Z,9.47
2022-12-20T07:16:55.977Z,8.43
2022-12-20T07:19:22.803Z,8.93
2022-12-20T07:21:49.518Z,8.90
2022-12-20T07:24:16.333Z,8.83
2022-12-20T07:26:45.750Z,10.67
2022-12-20T07:29:15.657Z,10.97
2022-12-20T07:31:42.883Z,10.13
2022-12-20T07:34:10.804Z,9.10
2022-12-20T07:36:37.987Z,11.50
2022-12-20T07:39:04.711Z,9.60
2022-12-20T07:41:31.615Z,8.37
2022-12-20T07:43:59.537Z,9.03
2022-12-20T07:46:26.761Z,9.83
2022-12-20T07:48:53.806Z,8.90
2022-12-20T07:51:26.508Z,11.73
2022-12-20T07:54:00.384Z,10.10
2022-12-20T07:56:27.698Z,18.33
2022-12-20T07:58:58.397Z,12.27
2022-12-20T08:01:27.463Z,9.23
2022-12-20T08:04:00.031Z,10.30
2022-12-20T08:06:26.761Z,9.27
2022-12-20T08:08:56.092Z,8.27
2022-12-20T08:11:23.258Z,9.60
2022-12-20T08:13:55.734Z,11.80
2022-12-20T08:16:24.961Z,11.03
2022-12-20T08:18:51.871Z,11.90
2022-12-20T08:21:19.265Z,12.53
2022-12-20T08:23:46.027Z,10.47
2022-12-20T08:26:12.738Z,12.17
2022-12-20T08:28:39.478Z,9.20
2022-12-20T08:31:08.503Z,7.97
2022-12-20T08:33:36.353Z,10.40
2022-12-20T08:36:06.965Z,8.27
2022-12-20T08:38:34.133Z,12.57
2022-12-20T08:41:05.984Z,11.00
2022-12-20T08:43:33.760Z,13.20
2022-12-20T08:46:01.000Z,12.03
2022-12-20T08:48:28.012Z,12.57
2022-12-20T08:50:56.879Z,10.00
2022-12-20T08:53:23.497Z,10.43
2022-12-20T08:55:50.974Z,8.60
2022-12-20T08:58:17.756Z,8.30
2022-12-20T09:00:44.951Z,5.97
2022-12-20T09:03:13.988Z,8.00
2022-12-20T09:05:47.502Z,6.77
2022-12-20T09:08:15.314Z,7.40
2022-12-20T09:10:42.530Z,7.00
2022-12-20T09:13:10.612Z,7.80
2022-12-20T09:15:37.509Z,6.90
2022-12-20T09:18:04.804Z,8.10
2022-12-20T09:20:31.682Z,7.80
2022-12-20T09:23:00.064Z,7.93
2022-12-20T09:25:27.533Z,8.00
2022-12-20T09:27:57.830Z,7.20
2022-12-20T09:30:24.577Z,7.73
2022-12-20T09:32:51.401Z,7.73
2022-12-20T09:35:23.018Z,8.10
2022-12-20T09:37:50.369Z,7.07
2022-12-20T09:40:19.083Z,9.13
2022-12-20T09:42:46.170Z,7.57
2022-12-20T09:45:20.163Z,8.73
2022-12-20T09:47:46.901Z,7.10
2022-12-20T09:50:16.007Z,7.63
2022-12-20T09:52:54.941Z,8.07
2022-12-20T09:55:24.596Z,7.37
2022-12-20T09:58:19.538Z,9.10
2022-12-20T10:00:53.454Z,7.77
2022-12-20T10:03:28.049Z,7.90
2022-12-20T10:05:58.034Z,7.47
2022-12-20T10:08:45.308Z,7.67
2022-12-20T10:11:51.409Z,6.77
2022-12-20T10:14:36.159Z,6.67
2022-12-20T10:17:06.220Z,7.90
2022-12-20T10:19:54.594Z,7.53
2022-12-20T10:22:25.835Z,9.23
2022-12-20T10:25:07.012Z,10.47
2022-12-20T10:27:38.051Z,10.63
2022-12-20T10:30:19.085Z,9.03
2022-12-20T10:32:48.293Z,8.40
2022-12-20T10:35:14.912Z,8.57
2022-12-20T10:38:08.945Z,7.40
2022-12-20T10:41:10.313Z,6.57
2022-12-20T10:43:25.201Z,7.00
2022-12-20T10:46:00.535Z,7.20
2022-12-20T10:48:29.639Z,8.37
2022-12-20T10:51:15.434Z,8.77
2022-12-20T10:53:53.614Z,8.30
2022-12-20T10:56:30.003Z,8.30
2022-12-20T10:59:00.907Z,7.77
2022-12-20T11:01:31.468Z,6.63
2022-12-20T11:03:59.569Z,7.43
2022-12-20T11:06:48.348Z,7.27
2022-12-20T11:09:27.330Z,8.93
2022-12-20T11:12:04.580Z,7.30
2022-12-20T11:14:38.898Z,8.30
2022-12-20T11:17:23.474Z,9.73
2022-12-20T11:20:08.321Z,7.67
2022-12-20T11:22:40.475Z,8.37
2022-12-20T11:25:21.122Z,7.33
2022-12-20T11:28:12.572Z,7.37
2022-12-20T11:30:51.023Z,7.23
2022-12-20T11:33:35.421Z,8.03
2022-12-20T11:36:18.071Z,11.60
2022-12-20T11:38:56.582Z,9.23
2022-12-20T11:41:35.523Z,7.33
2022-12-20T11:44:26.689Z,7.03
2022-12-20T11:47:15.316Z,8.60
2022-12-20T11:50:04.693Z,6.80
2022-12-20T11:52:35.774Z,6.47
2022-12-20T11:55:36.666Z,6.80
2022-12-20T11:58:27.499Z,7.03
2022-12-20T12:01:02.254Z,7.47
2022-12-20T12:03:40.188Z,7.20
2022-12-20T12:06:17.023Z,7.00
2022-12-20T12:08:50.092Z,7.87
2022-12-20T12:12:07.926Z,6.43
2022-12-20T12:14:46.909Z,7.57
2022-12-20T12:17:51.390Z,7.63
2022-12-20T12:20:27.274Z,7.13
2022-12-20T12:23:00.751Z,6.30
2022-12-20T12:25:27.703Z,6.50
2022-12-20T12:27:54.584Z,7.30
2022-12-20T12:30:21.674Z,7.00
2022-12-20T12:32:54.757Z,6.07
2022-12-20T12:35:52.427Z,6.77
2022-12-20T12:38:32.918Z,5.60
2022-12-20T12:41:05.503Z,6.90
2022-12-20T12:43:52.763Z,6.80
2022-12-20T12:46:33.178Z,8.10
2022-12-20T12:49:04.640Z,9.13
2022-12-20T12:51:39.908Z,8.50
2022-12-20T12:54:09.543Z,10.57
2022-12-20T12:56:44.669Z,9.93
2022-12-20T12:59:12.469Z,9.63
2022-12-20T13:01:54.123Z,6.90
2022-12-20T13:04:21.143Z,8.13
2022-12-20T13:06:47.908Z,9.10
2022-12-20T13:09:27.211Z,9.40
2022-12-20T13:12:01.397Z,8.60
2022-12-20T13:14:31.058Z,9.47
2022-12-20T13:17:19.512Z,9.80
2022-12-20T13:19:57.719Z,9.97
2022-12-20T13:22:25.863Z,10.33
2022-12-20T13:24:57.025Z,11.67
2022-12-20T13:27:29.527Z,10.93
2022-12-20T13:29:59.686Z,12.60
2022-12-20T13:32:48.397Z,10.53
2022-12-20T13:35:30.157Z,9.87
2022-12-20T13:38:04.235Z,11.33
2022-12-20T13:40:43.661Z,10.73
2022-12-20T13:43:19.623Z,10.00
2022-12-20T13:45:53.849Z,11.70
2022-12-20T13:48:26.815Z,14.10
2022-12-20T13:50:55.299Z,14.47
2022-12-20T13:53:24.986Z,12.17
2022-12-20T13:55:51.706Z,13.57
2022-12-20T13:58:22.503Z,12.50
2022-12-20T14:00:49.918Z,13.40
2022-12-20T14:03:28.388Z,12.90
2022-12-20T14:06:02.935Z,14.73
2022-12-20T14:08:32.758Z,14.77
2022-12-20T14:11:12.713Z,14.17
2022-12-20T14:13:39.779Z,16.33
2022-12-20T14:16:20.249Z,14.80
2022-12-20T14:18:51.220Z,15.07
2022-12-20T14:21:18.929Z,13.70
2022-12-20T14:23:48.653Z,13.87
2022-12-20T14:26:26.841Z,14.87
2022-12-20T14:28:58.673Z,12.90
2022-12-20T14:31:41.565Z,10.27
2022-12-20T14:34:11.475Z,10.40
2022-12-20T14:36:43.023Z,10.70
2022-12-20T14:39:39.331Z,10.77
2022-12-20T14:42:09.861Z,10.67
2022-12-20T14:44:36.697Z,10.87
2022-12-20T14:47:20.318Z,13.07
2022-12-20T14:50:01.614Z,13.00
2022-12-20T14:52:39.103Z,13.70
2022-12-20T14:55:10.199Z,13.63
2022-12-20T14:57:37.275Z,12.33
2022-12-20T15:00:21.515Z,14.57
2022-12-20T15:03:00.833Z,12.80
2022-12-20T15:05:34.221Z,12.27
2022-12-20T15:08:19.555Z,10.93
2022-12-20T15:11:10.941Z,10.60
2022-12-20T15:13:42.851Z,11.00
2022-12-20T15:16:19.975Z,10.30
2022-12-20T15:18:54.220Z,11.30
2022-12-20T15:21:27.063Z,13.17
2022-12-20T15:23:55.910Z,11.10
2022-12-20T15:26:25.127Z,11.00
2022-12-20T15:28:52.438Z,11.57
2022-12-20T15:31:25.987Z,12.20
2022-12-20T15:33:58.329Z,14.13
2022-12-20T15:36:27.175Z,14.30
2022-12-20T15:39:12.233Z,14.03
2022-12-20T15:41:42.939Z,14.67
2022-12-20T15:44:15.662Z,12.27
2022-12-20T15:46:44.449Z,11.40
2022-12-20T15:49:25.555Z,11.30
2022-12-20T15:51:54.039Z,12.30
2022-12-20T15:54:30.016Z,14.13
2022-12-20T15:56:58.780Z,12.00
2022-12-20T15:59:58.906Z,13.50
2022-12-20T16:02:25.981Z,14.63
2022-12-20T16:04:53.657Z,17.70
2022-12-20T16:07:20.396Z,16.63
2022-12-20T16:09:47.205Z,15.60
2022-12-20T16:12:21.653Z,18.00
2022-12-20T16:14:48.430Z,17.40
2022-12-20T16:17:15.896Z,17.70
2022-12-20T16:19:43.284Z,15.27
2022-12-20T16:22:17.563Z,12.93
2022-12-20T16:24:45.228Z,10.80
2022-12-20T16:27:12.198Z,11.97
2022-12-20T16:29:39.004Z,8.90
2022-12-20T16:32:17.009Z,9.60
2022-12-20T16:34:44.731Z,9.47
2022-12-20T16:37:14.318Z,8.60
2022-12-20T16:39:41.736Z,9.40
2022-12-20T16:42:17.195Z,7.60
2022-12-20T16:44:45.848Z,8.13
2022-12-20T16:47:14.006Z,7.60
2022-12-20T16:49:47.262Z,7.53
2022-12-20T16:52:19.327Z,9.33
2022-12-20T16:54:46.155Z,7.30
2022-12-20T16:57:12.863Z,8.30
2022-12-20T16:59:39.761Z,8.03
2022-12-20T17:02:25.750Z,7.43
2022-12-20T17:04:52.690Z,7.30
2022-12-20T17:07:19.479Z,7.27
2022-12-20T17:12:30.361Z,5.40
2022-12-20T17:14:57.241Z,5.80
2022-12-20T17:17:24.050Z,5.43
2022-12-20T17:19:50.917Z,5.90
2022-12-20T17:25:02.386Z,5.70
2022-12-20T17:27:29.194Z,6.07
2022-12-20T17:29:55.951Z,5.83
2022-12-20T17:32:24.615Z,5.63
2022-12-20T17:34:53.000Z,5.33
2022-12-20T17:37:21.311Z,6.00
2022-12-20T17:39:48.409Z,6.37
2022-12-20T17:42:15.742Z,7.07
2022-12-20T17:44:42.618Z,6.13
2022-12-20T17:47:09.628Z,6.23
2022-12-20T17:49:36.403Z,7.10
2022-12-20T17:52:03.270Z,7.43
2022-12-20T17:54:38.516Z,7.13
2022-12-20T17:57:06.118Z,6.60
2022-12-20T17:59:33.033Z,7.80
2022-12-20T18:01:59.964Z,8.40
2022-12-20T18:04:26.985Z,7.87
2022-12-20T18:06:53.875Z,7.93
2022-12-20T18:09:21.724Z,7.80
2022-12-20T18:11:49.034Z,7.47
2022-12-20T18:14:16.034Z,7.20
2022-12-20T18:16:43.301Z,7.20
2022-12-20T18:19:16.132Z,8.13
2022-12-20T18:21:42.921Z,7.10
2022-12-20T18:24:14.675Z,8.57
2022-12-20T18:26:41.710Z,7.00
2022-12-20T18:29:09.906Z,8.53
2022-12-20T18:31:36.863Z,7.30
2022-12-20T18:34:03.869Z,8.03
2022-12-20T18:36:35.038Z,7.20
2022-12-20T18:39:03.162Z,6.33
2022-12-20T18:41:30.817Z,7.00
2022-12-20T18:44:00.331Z,8.20
2022-12-20T18:46:27.710Z,8.13
2022-12-20T18:48:55.748Z,7.47
2022-12-20T18:51:26.332Z,7.63
2022-12-20T18:53:55.360Z,10.00
2022-12-20T18:56:29.366Z,10.13
2022-12-20T18:58:56.858Z,8.63
2022-12-20T19:01:25.649Z,9.73
2022-12-20T19:03:53.389Z,13.60
2022-12-20T19:06:20.656Z,12.57
2022-12-20T19:08:47.667Z,9.60
2022-12-20T19:11:24.104Z,9.10
2022-12-20T19:13:51.433Z,8.57
2022-12-20T19:16:23.908Z,9.10
2022-12-20T19:18:51.179Z,7.57
2022-12-20T19:21:24.182Z,7.10
2022-12-20T19:23:52.963Z,8.47
2022-12-20T19:26:20.882Z,9.10
2022-12-20T19:28:48.045Z,9.10
2022-12-20T19:31:21.615Z,8.20
2022-12-20T19:33:48.861Z,12.10
2022-12-20T19:36:21.279Z,11.80
2022-12-20T19:38:53.491Z,11.03
2022-12-20T19:41:20.383Z,9.27
2022-12-20T19:43:49.593Z,8.83
2022-12-20T19:46:16.627Z,9.97
2022-12-20T19:48:43.497Z,9.63
2022-12-20T19:51:12.453Z,8.10
2022-12-20T19:53:40.259Z,7.63
2022-12-20T19:56:10.008Z,6.97
2022-12-20T19:58:37.866Z,7.87
2022-12-20T20:01:05.414Z,7.10
2022-12-20T20:03:32.793Z,6.40
2022-12-20T20:05:59.657Z,7.40
2022-12-20T20:08:26.431Z,6.77
2022-12-20T20:10:55.406Z,7.90
2022-12-20T20:13:23.312Z,6.73
2022-12-20T20:15:53.828Z,7.50
2022-12-20T20:18:21.266Z,6.13
2022-12-20T20:20:47.879Z,7.67
2022-12-20T20:23:14.944Z,5.50
2022-12-20T20:25:48.119Z,6.47
2022-12-20T20:28:14.824Z,6.70
2022-12-20T20:30:42.790Z,5.53
2022-12-20T20:33:10.245Z,5.37
2022-12-20T20:35:37.027Z,7.37
2022-12-20T20:38:03.853Z,5.60
2022-12-20T20:40:30.844Z,7.03
2022-12-20T20:42:57.537Z,6.03
2022-12-20T20:45:24.153Z,6.50
2022-12-20T20:47:50.882Z,6.40
2022-12-20T20:50:18.314Z,6.77
2022-12-20T20:52:44.922Z,5.77
2022-12-20T20:55:11.558Z,6.37
2022-12-20T20:57:38.531Z,5.93
2022-12-20T21:00:07.297Z,6.43
2022-12-20T21:02:34.267Z,5.70
2022-12-20T21:05:52.502Z,6.30
2022-12-20T21:07:47.726Z,6.17
2022-12-20T21:10:14.666Z,5.60
2022-12-20T21:12:41.338Z,5.83
2022-12-20T21:15:24.652Z,5.63
2022-12-20T21:17:51.509Z,5.63
2022-12-20T21:20:23.877Z,5.73
2022-12-20T21:22:52.456Z,5.90
2022-12-20T21:25:19.226Z,5.30
2022-12-20T21:27:45.869Z,5.17
2022-12-20T21:30:12.717Z,4.97
2022-12-20T21:32:39.359Z,4.27
2022-12-20T21:35:06.512Z,4.90
2022-12-20T21:37:33.109Z,5.00
2022-12-20T21:39:59.727Z,6.07
2022-12-20T21:42:26.379Z,6.40
2022-12-20T21:44:53.068Z,5.77
2022-12-20T21:47:20.193Z,6.50
2022-12-20T21:49:46.829Z,4.90
2022-12-20T21:52:13.654Z,4.73
2022-12-20T21:54:40.565Z,5.37
2022-12-20T21:57:07.197Z,5.10
2022-12-20T21:59:33.819Z,4.77
2022-12-20T22:02:00.729Z,5.13
2022-12-20T22:04:27.627Z,4.77
2022-12-20T22:06:54.221Z,4.73
2022-12-20T22:09:20.879Z,6.67
2022-12-20T22:11:50.863Z,4.73
2022-12-20T22:14:17.438Z,5.30
2022-12-20T22:16:44.246Z,5.47
2022-12-20T22:19:13.109Z,5.07
2022-12-20T22:21:39.748Z,5.30
2022-12-20T22:24:06.572Z,6.20
2022-12-20T22:26:33.828Z,12.17
2022-12-20T22:29:03.245Z,11.80
2022-12-20T22:31:30.595Z,11.13
2022-12-20T22:33:58.511Z,10.60
2022-12-20T22:36:25.789Z,9.57
2022-12-20T22:38:53.935Z,11.53
2022-12-20T22:41:23.107Z,9.33
2022-12-20T22:43:50.278Z,7.47
2022-12-20T22:46:18.090Z,8.93
2022-12-20T22:48:45.562Z,8.00
2022-12-20T22:51:20.633Z,5.60
2022-12-20T22:53:48.097Z,7.43
2022-12-20T22:56:15.675Z,6.67
2022-12-20T22:58:42.363Z,7.20
2022-12-20T23:01:12.446Z,7.57
2022-12-20T23:03:39.589Z,9.70
2022-12-20T23:06:08.269Z,7.10
2022-12-20T23:08:37.285Z,7.53
2022-12-20T23:11:24.082Z,7.93
2022-12-20T23:14:09.227Z,7.50
2022-12-20T23:16:37.875Z,6.70
2022-12-20T23:19:04.494Z,7.10
2022-12-20T23:21:49.548Z,7.73
2022-12-20T23:24:16.322Z,7.00
2022-12-20T23:26:43.378Z,6.33
2022-12-20T23:29:11.389Z,5.60
2022-12-20T23:31:38.109Z,5.77
2022-12-20T23:34:04.966Z,6.80
2022-12-20T23:36:33.361Z,7.27
2022-12-20T23:39:00.263Z,6.37
2022-12-20T23:41:27.149Z,7.73
2022-12-20T23:43:53.844Z,6.70
2022-12-20T23:46:21.997Z,8.10
2022-12-20T23:48:51.000Z,9.20
2022-12-20T23:51:18.438Z,10.10
2022-12-20T23:53:45.321Z,11.90
2022-12-20T23:56:15.025Z,10.50
2022-12-20T23:58:42.721Z,7.63
